Time;durP1;ratioP1;P1;durP2;ratioP2;P2;SDS_P1;SDS_P2;PMS_P1;PMS_P2;Temp;Humidity;BMP_temperature;BMP_pressure;BME280_temperature;BME280_humidity;BME280_pressure;Samples;Min_cycle;Max_cycle;Signal;HPM_P1;HPM_P2
2022/07/10 00:00:11;;;;;;;3.45;1.52;;;;;;;14.78;62.32;102664.25;5068603;28;20410;-74
2022/07/10 00:02:37;;;;;;;3.88;1.10;;;;;;;14.75;62.27;102659.06;5067927;28;20036;-74
2022/07/10 00:05:03;;;;;;;3.95;1.05;;;;;;;14.76;62.21;102657.31;5070561;28;20027;-74
2022/07/10 00:07:29;;;;;;;6.10;1.20;;;;;;;14.74;62.51;102659.06;5065856;28;20024;-74
2022/07/10 00:09:54;;;;;;;3.10;1.10;;;;;;;14.72;62.72;102659.97;5063374;28;20383;-74
2022/07/10 00:12:19;;;;;;;2.58;0.90;;;;;;;14.72;62.75;102667.81;5068546;28;20036;-74
2022/07/10 00:14:45;;;;;;;3.05;1.00;;;;;;;14.70;62.77;102663.50;5068100;28;20012;-74
2022/07/10 00:17:10;;;;;;;3.25;0.90;;;;;;;14.69;62.47;102661.75;5066203;28;20020;-74
2022/07/10 00:19:35;;;;;;;3.30;1.45;;;;;;;14.64;62.99;102661.81;5069980;28;20036;-74
2022/07/10 00:22:01;;;;;;;3.42;1.10;;;;;;;14.60;62.61;102660.09;5067146;28;20094;-74
2022/07/10 00:24:26;;;;;;;4.05;1.00;;;;;;;14.52;63.03;102654.09;5067595;28;20353;-74
2022/07/10 00:26:51;;;;;;;3.78;1.10;;;;;;;14.47;63.19;102650.69;5069094;28;20064;-74
2022/07/10 00:29:16;;;;;;;4.60;1.10;;;;;;;14.46;63.11;102648.94;5061636;28;20029;-74
2022/07/10 00:31:42;;;;;;;7.70;1.17;;;;;;;14.45;63.02;102652.44;5067431;28;20061;-74
2022/07/10 00:34:07;;;;;;;2.75;0.90;;;;;;;14.41;63.05;102652.47;5065835;28;20031;-74
2022/07/10 00:36:32;;;;;;;3.10;1.00;;;;;;;14.38;63.09;102649.03;5061474;28;20017;-74
2022/07/10 00:38:58;;;;;;;3.60;1.10;;;;;;;14.34;63.23;102653.47;5068363;28;20025;-74
2022/07/10 00:41:23;;;;;;;4.75;1.10;;;;;;;14.31;63.00;102640.41;5064215;28;20041;-74
2022/07/10 00:43:58;;;;;;;4.82;1.10;;;;;;;14.27;63.51;102641.31;5069804;28;20024;-74
2022/07/10 00:46:26;;;;;;;3.03;1.10;;;;;;;14.30;63.48;102637.78;5064378;28;20111;-74
2022/07/10 00:48:52;;;;;;;3.85;1.10;;;;;;;14.31;63.51;102640.41;5066455;28;20112;-74
2022/07/10 00:51:18;;;;;;;5.15;1.15;;;;;;;14.31;63.42;102640.41;5067767;28;20099;-74
2022/07/10 00:53:46;;;;;;;4.90;1.13;;;;;;;14.29;63.61;102639.56;5069527;28;20031;-73
2022/07/10 00:56:14;;;;;;;3.67;1.10;;;;;;;14.27;63.64;102636.94;5047067;28;20641;-73
2022/07/10 00:58:41;;;;;;;3.53;0.90;;;;;;;14.28;63.55;102637.81;5069087;28;20028;-74
2022/07/10 01:01:07;;;;;;;3.65;1.10;;;;;;;14.25;63.76;102630.00;5066115;28;20083;-74
2022/07/10 01:03:32;;;;;;;4.18;1.00;;;;;;;14.25;63.50;102624.75;5064198;28;20590;-74
2022/07/10 01:05:58;;;;;;;2.53;1.10;;;;;;;14.23;63.62;102627.41;5069556;28;20024;-73
2022/07/10 01:08:23;;;;;;;3.10;1.15;;;;;;;14.22;63.63;102620.44;5067264;28;20023;-74
2022/07/10 01:10:49;;;;;;;3.60;1.00;;;;;;;14.21;63.78;102616.09;5065289;28;20518;-74
2022/07/10 01:13:15;;;;;;;3.45;1.27;;;;;;;14.17;63.92;102608.31;5066880;28;20467;-74
2022/07/10 01:15:40;;;;;;;2.55;0.90;;;;;;;14.16;63.85;102611.81;5070721;28;20028;-74
2022/07/10 01:18:06;;;;;;;3.10;1.00;;;;;;;14.13;64.25;102614.44;5068534;28;20104;-74
2022/07/10 01:20:33;;;;;;;4.50;1.40;;;;;;;14.11;64.29;102604.88;5050923;28;20027;-74
2022/07/10 01:22:58;;;;;;;3.28;1.10;;;;;;;14.11;64.42;102601.38;5068600;28;20017;-73
2022/07/10 01:25:24;;;;;;;2.72;1.10;;;;;;;14.09;64.49;102595.31;5065798;28;20028;-74
2022/07/10 01:27:50;;;;;;;4.57;1.17;;;;;;;14.09;64.63;102606.63;5068588;28;20376;-74
2022/07/10 01:30:15;;;;;;;6.03;1.02;;;;;;;14.10;64.36;102607.47;5062862;28;20075;-74
2022/07/10 01:32:41;;;;;;;3.83;1.20;;;;;;;14.10;64.71;102605.75;5063129;28;20029;-74
2022/07/10 01:35:07;;;;;;;3.65;1.10;;;;;;;14.09;64.51;102611.88;5063924;28;20037;-73
2022/07/10 01:37:33;;;;;;;4.65;1.02;;;;;;;14.07;64.84;102615.41;5061416;28;20024;-74
2022/07/10 01:39:58;;;;;;;2.85;1.15;;;;;;;14.06;64.61;102609.28;5066111;28;20047;-73
2022/07/10 01:42:23;;;;;;;4.72;1.15;;;;;;;14.08;64.75;102607.50;5059005;28;20029;-73
2022/07/10 01:44:49;;;;;;;3.15;1.13;;;;;;;14.07;65.07;102602.31;5059994;28;20082;-74
2022/07/10 01:47:14;;;;;;;4.35;1.15;;;;;;;14.08;65.32;102606.66;5063019;28;20046;-74
2022/07/10 01:49:39;;;;;;;4.25;1.00;;;;;;;14.08;65.39;102602.28;5062512;28;20059;-73
2022/07/10 01:52:05;;;;;;;3.35;1.15;;;;;;;14.08;65.41;102607.50;5067681;28;20035;-74
2022/07/10 01:54:30;;;;;;;4.07;1.38;;;;;;;14.09;65.28;102611.00;5065383;28;20245;-74
2022/07/10 01:56:55;;;;;;;3.30;1.30;;;;;;;14.10;65.28;102599.63;5067364;28;20063;-74
2022/07/10 01:59:21;;;;;;;4.75;1.45;;;;;;;14.08;65.21;102597.03;5066687;28;20105;-74
2022/07/10 02:01:46;;;;;;;3.70;1.20;;;;;;;14.08;65.51;102602.28;5065524;28;20158;-73
2022/07/10 02:06:55;;;;;;;3.10;1.30;;;;;;;14.08;65.68;102597.03;5062010;28;20043;-74
2022/07/10 02:09:20;;;;;;;2.17;1.20;;;;;;;14.08;65.76;102591.81;5064911;28;20033;-73
2022/07/10 02:11:45;;;;;;;4.38;1.58;;;;;;;14.07;65.36;102587.47;5062789;28;20051;-74
2022/07/10 02:14:11;;;;;;;4.22;1.48;;;;;;;14.07;65.46;102599.69;5068651;28;20036;-74
2022/07/10 02:16:36;;;;;;;4.80;1.80;;;;;;;14.04;65.50;102592.72;5065953;28;20028;-73
2022/07/10 02:19:02;;;;;;;4.55;1.52;;;;;;;14.02;65.68;102586.63;5067571;28;20029;-74
2022/07/10 02:21:27;;;;;;;3.88;1.77;;;;;;;14.00;65.73;102588.44;5064099;28;20030;-74
2022/07/10 02:23:52;;;;;;;4.07;1.80;;;;;;;13.97;66.24;102588.47;5064409;28;20044;-74
2022/07/10 02:26:18;;;;;;;5.35;1.55;;;;;;;13.94;65.98;102583.25;5061899;28;20029;-73
2022/07/10 02:28:43;;;;;;;5.45;1.70;;;;;;;13.92;66.12;102588.50;5065039;28;20035;-74
2022/07/10 02:31:08;;;;;;;3.53;1.63;;;;;;;13.90;66.37;102595.53;5067256;28;20089;-73
2022/07/10 02:33:34;;;;;;;3.30;1.67;;;;;;;13.89;66.20;102598.16;5069430;28;20021;-73
2022/07/10 02:35:59;;;;;;;4.13;1.50;;;;;;;13.84;66.55;102595.59;5068377;28;20407;-73
2022/07/10 02:38:24;;;;;;;3.70;1.65;;;;;;;13.85;67.08;102593.81;5065160;28;20028;-73
2022/07/10 02:40:50;;;;;;;4.15;1.70;;;;;;;13.84;66.91;102586.84;5063969;28;20688;-74
2022/07/10 02:43:15;;;;;;;3.97;1.60;;;;;;;13.83;66.75;102590.38;5064584;28;20115;-74
2022/07/10 02:45:40;;;;;;;4.55;1.70;;;;;;;13.79;67.12;102579.94;5066037;28;20041;-74
2022/07/10 02:48:06;;;;;;;5.68;1.90;;;;;;;13.77;67.11;102584.34;5064747;28;20109;-74
2022/07/10 02:50:31;;;;;;;4.03;1.73;;;;;;;13.75;67.06;102582.63;5067252;28;20229;-74
2022/07/10 02:52:56;;;;;;;4.53;1.90;;;;;;;13.74;67.13;102589.59;5066898;28;20025;-74
2022/07/10 02:55:21;;;;;;;4.60;1.85;;;;;;;13.71;67.05;102581.78;5068206;28;20048;-74
2022/07/10 02:57:47;;;;;;;6.35;2.20;;;;;;;13.71;67.64;102587.00;5063072;28;20478;-74
2022/07/10 03:00:12;;;;;;;4.50;1.88;;;;;;;13.70;67.72;102587.03;5065784;28;20081;-74
2022/07/10 03:02:38;;;;;;;5.93;2.20;;;;;;;13.70;67.89;102579.19;5064719;28;20032;-74
2022/07/10 03:05:04;;;;;;;4.28;1.80;;;;;;;13.69;67.73;102583.53;5066044;28;20029;-74
2022/07/10 03:07:29;;;;;;;4.68;1.90;;;;;;;13.67;67.59;102582.69;5064999;28;20440;-74
2022/07/10 03:09:54;;;;;;;6.95;1.60;;;;;;;13.66;68.04;102583.59;5063834;28;20020;-73
2022/07/10 03:12:19;;;;;;;4.43;1.50;;;;;;;13.66;67.64;102583.59;5065267;28;20090;-74
2022/07/10 03:14:45;;;;;;;6.40;1.80;;;;;;;13.64;67.75;102575.75;5065785;28;20414;-73
2022/07/10 03:17:10;;;;;;;6.57;1.92;;;;;;;13.64;67.47;102567.03;5061623;28;20024;-74
2022/07/10 03:19:35;;;;;;;4.53;1.70;;;;;;;13.62;67.74;102576.66;5061996;28;20497;-73
2022/07/10 03:22:00;;;;;;;4.55;1.60;;;;;;;13.61;67.72;102580.16;5067147;28;20036;-73
2022/07/10 03:24:26;;;;;;;4.82;1.63;;;;;;;13.61;67.89;102582.75;5066494;28;20039;-73
2022/07/10 03:26:51;;;;;;;5.00;1.75;;;;;;;13.62;67.97;102571.41;5066077;28;20052;-73
2022/07/10 03:29:16;;;;;;;5.97;2.05;;;;;;;13.64;67.77;102572.28;5068024;28;20032;-74
2022/07/10 03:31:42;;;;;;;6.68;1.58;;;;;;;13.65;68.07;102567.00;5065514;28;20032;-73
2022/07/10 03:34:07;;;;;;;3.50;1.70;;;;;;;13.66;68.00;102568.75;5063066;28;20387;-74
2022/07/10 03:36:32;;;;;;;4.28;1.70;;;;;;;13.65;68.41;102571.41;5062885;28;20024;-73
2022/07/10 03:38:58;;;;;;;5.43;1.67;;;;;;;13.64;68.19;102569.66;5062250;28;21230;-73
2022/07/10 03:41:23;;;;;;;3.35;1.60;;;;;;;13.61;68.29;102560.06;5061948;28;20033;-73
2022/07/10 03:43:48;;;;;;;5.20;1.75;;;;;;;13.62;68.92;102572.28;5065271;28;20380;-73
2022/07/10 03:46:13;;;;;;;4.80;1.80;;;;;;;13.64;68.86;102569.66;5060817;28;20039;-74
2022/07/10 03:48:39;;;;;;;3.33;1.63;;;;;;;13.64;68.49;102567.03;5066003;28;20074;-73
2022/07/10 03:51:04;;;;;;;3.50;1.50;;;;;;;13.63;68.85;102557.47;5065113;28;20067;-73
2022/07/10 03:53:30;;;;;;;3.88;1.50;;;;;;;13.64;68.55;102556.59;5063586;28;20033;-74
2022/07/10 03:55:55;;;;;;;4.88;1.60;;;;;;;13.63;69.00;102560.09;5063205;28;20032;-73
2022/07/10 03:58:21;;;;;;;4.03;1.70;;;;;;;13.63;68.70;102555.69;5063831;28;20115;-74
2022/07/10 04:00:46;;;;;;;5.18;1.70;;;;;;;13.62;68.89;102553.97;5050037;28;20051;-74
2022/07/10 04:03:13;;;;;;;3.97;1.55;;;;;;;13.61;68.93;102556.63;5061076;28;20465;-73
2022/07/10 04:05:38;;;;;;;4.07;1.75;;;;;;;13.61;69.55;102559.22;5069969;28;20476;-74
2022/07/10 04:08:04;;;;;;;4.95;1.70;;;;;;;13.61;68.96;102559.22;5065699;28;20063;-74
2022/07/10 04:10:31;;;;;;;4.75;1.73;;;;;;;13.60;69.47;102567.97;5071094;28;20094;-74
2022/07/10 04:12:56;;;;;;;5.97;1.60;;;;;;;13.63;69.81;102573.16;5070590;28;20021;-74
2022/07/10 04:15:22;;;;;;;5.40;1.90;;;;;;;13.65;69.68;102559.16;5063134;28;20035;-73
2022/07/10 04:17:50;;;;;;;4.57;1.67;;;;;;;13.69;69.48;102560.00;5063760;28;20024;-74
2022/07/10 04:20:16;;;;;;;3.75;1.60;;;;;;;13.71;69.34;102552.16;5070509;28;20031;-74
2022/07/10 04:22:42;;;;;;;5.28;1.75;;;;;;;13.72;69.52;102552.13;5070584;28;20025;-74
2022/07/10 04:25:08;;;;;;;5.35;1.50;;;;;;;13.74;69.17;102555.59;5064269;28;20467;-73
2022/07/10 04:27:34;;;;;;;4.47;1.73;;;;;;;13.74;69.86;102554.75;5065826;28;20043;-74
2022/07/10 04:29:59;;;;;;;6.50;1.92;;;;;;;13.77;69.55;102566.03;5063536;28;20510;-73
2022/07/10 04:32:25;;;;;;;5.05;2.00;;;;;;;13.80;69.52;102560.75;5065569;28;20104;-74
2022/07/10 04:34:50;;;;;;;3.88;1.90;;;;;;;13.80;69.66;102559.88;5068743;28;20040;-74
2022/07/10 04:37:16;;;;;;;7.28;1.80;;;;;;;13.80;69.03;102559.88;5066636;28;20048;-74
2022/07/10 04:39:42;;;;;;;3.75;1.45;;;;;;;13.80;69.58;102555.53;5065066;28;20526;-74
2022/07/10 04:42:08;;;;;;;4.78;1.70;;;;;;;13.81;69.63;102554.66;5061254;28;20032;-74
2022/07/10 04:44:35;;;;;;;5.78;1.80;;;;;;;13.78;69.46;102559.03;5062166;28;20024;-74
2022/07/10 04:47:01;;;;;;;5.45;2.20;;;;;;;13.78;69.81;102552.06;5068013;28;20033;-74
2022/07/10 04:49:26;;;;;;;3.95;1.80;;;;;;;13.78;69.66;102557.28;5067182;28;20395;-74
2022/07/10 04:51:52;;;;;;;4.45;1.50;;;;;;;13.78;69.77;102552.06;5066616;28;20017;-74
2022/07/10 04:54:17;;;;;;;5.85;1.65;;;;;;;13.79;70.12;102561.63;5062971;28;20391;-73
2022/07/10 04:56:43;;;;;;;5.03;1.60;;;;;;;13.80;69.67;102560.75;5069553;28;20028;-74
2022/07/10 04:59:09;;;;;;;3.30;1.40;;;;;;;13.81;69.80;102562.50;5065720;28;20486;-74
2022/07/10 05:01:34;;;;;;;6.35;1.63;;;;;;;13.84;69.63;102560.69;5063195;28;20020;-73
2022/07/10 05:04:00;;;;;;;3.65;1.33;;;;;;;13.85;69.54;102567.66;5065625;28;20025;-74
2022/07/10 05:06:25;;;;;;;4.50;1.70;;;;;;;13.86;69.63;102561.53;5066647;28;20696;-74
2022/07/10 05:08:50;;;;;;;4.72;1.50;;;;;;;13.90;70.45;102573.72;5067842;28;20021;-73
2022/07/10 05:11:16;;;;;;;4.10;1.25;;;;;;;13.94;69.94;102572.81;5062734;28;20028;-73
2022/07/10 05:13:45;;;;;;;3.67;1.30;;;;;;;13.96;69.66;102581.50;5065662;28;20021;-73
2022/07/10 05:16:10;;;;;;;4.82;1.40;;;;;;;13.98;69.16;102584.97;5066661;28;20016;-73
2022/07/10 05:18:35;;;;;;;4.60;1.13;;;;;;;14.00;69.37;102577.09;5047259;28;20021;-73
2022/07/10 05:21:01;;;;;;;4.00;1.27;;;;;;;14.05;69.65;102576.16;5066813;28;20032;-74
2022/07/10 05:23:26;;;;;;;6.07;1.58;;;;;;;14.07;69.43;102569.13;5068766;28;20028;-74
2022/07/10 05:25:51;;;;;;;3.72;1.30;;;;;;;14.08;69.15;102572.66;5065520;28;20475;-74
2022/07/10 05:28:16;;;;;;;4.07;1.50;;;;;;;14.09;69.00;102570.00;5063531;28;20024;-73
2022/07/10 05:30:42;;;;;;;4.57;1.27;;;;;;;14.10;69.63;102566.50;5063188;28;20031;-73
2022/07/10 05:33:07;;;;;;;3.72;1.20;;;;;;;14.13;69.59;102572.56;5069236;28;20020;-73
2022/07/10 05:35:33;;;;;;;3.92;1.20;;;;;;;14.17;69.64;102576.91;5061617;28;20056;-74
2022/07/10 05:37:59;;;;;;;5.15;1.52;;;;;;;14.18;69.52;102573.34;5064437;28;20028;-73
2022/07/10 05:40:24;;;;;;;2.83;1.50;;;;;;;14.16;68.93;102573.41;5065170;28;20049;-74
2022/07/10 05:42:50;;;;;;;4.90;1.35;;;;;;;14.14;69.36;102569.06;5064113;28;20047;-74
2022/07/10 05:45:15;;;;;;;5.18;1.40;;;;;;;14.11;69.50;102565.59;5063870;28;20119;-73
2022/07/10 05:47:40;;;;;;;3.75;1.27;;;;;;;14.09;69.18;102577.84;5064877;28;20472;-74
2022/07/10 05:50:06;;;;;;;4.55;1.52;;;;;;;14.08;69.33;102576.13;5068412;28;20496;-74
2022/07/10 05:52:31;;;;;;;4.63;1.50;;;;;;;14.04;69.59;102578.78;5062900;28;20025;-74
2022/07/10 05:54:57;;;;;;;3.83;1.20;;;;;;;14.02;69.50;102578.78;5065447;28;20578;-74
2022/07/10 05:57:22;;;;;;;2.67;1.23;;;;;;;14.01;69.59;102584.91;5066824;28;20391;-74
2022/07/10 05:59:48;;;;;;;5.68;1.40;;;;;;;14.02;69.67;102568.31;5065189;28;20029;-74
2022/07/10 06:02:13;;;;;;;3.20;1.20;;;;;;;14.03;69.65;102567.44;5062696;28;20032;-74
2022/07/10 06:04:39;;;;;;;11.52;1.70;;;;;;;14.04;69.93;102569.19;5061531;28;20040;-74
2022/07/10 06:07:04;;;;;;;7.80;1.52;;;;;;;14.07;70.50;102569.13;5064311;28;20028;-74
2022/07/10 06:09:29;;;;;;;4.65;1.35;;;;;;;14.11;70.21;102563.00;5065249;28;20028;-73
2022/07/10 06:11:55;;;;;;;4.63;1.38;;;;;;;14.19;71.07;102564.63;5067797;28;20522;-73
2022/07/10 06:14:20;;;;;;;3.55;1.35;;;;;;;14.27;70.41;102568.03;5060968;28;20028;-73
2022/07/10 06:16:45;;;;;;;5.30;1.73;;;;;;;14.35;70.08;102562.69;5064644;28;20025;-74
2022/07/10 06:19:12;;;;;;;7.70;1.60;;;;;;;14.45;70.09;102573.88;5065224;28;20460;-74
2022/07/10 06:21:37;;;;;;;4.88;1.50;;;;;;;14.53;69.21;102574.63;5068289;28;20047;-74
2022/07/10 06:24:02;;;;;;;4.93;1.30;;;;;;;14.62;68.81;102577.13;5064365;28;20029;-74
2022/07/10 06:26:28;;;;;;;7.55;1.77;;;;;;;14.70;69.05;102564.78;5061440;28;20056;-74
2022/07/10 06:28:53;;;;;;;4.50;1.40;;;;;;;14.80;69.82;102567.28;5063240;28;20032;-74
2022/07/10 06:31:18;;;;;;;5.85;1.67;;;;;;;14.90;69.32;102570.63;5062316;28;20024;-74
2022/07/10 06:33:44;;;;;;;4.28;1.35;;;;;;;15.00;68.33;102557.34;5045970;28;20467;-74
2022/07/10 06:36:09;;;;;;;4.88;1.38;;;;;;;15.07;68.39;102558.13;5063104;28;20536;-74
2022/07/10 06:38:34;;;;;;;3.63;1.27;;;;;;;15.07;68.00;102557.22;5064181;28;20479;-73
2022/07/10 06:41:00;;;;;;;4.35;1.30;;;;;;;15.10;67.50;102557.19;5063764;28;20040;-73
2022/07/10 06:43:25;;;;;;;5.70;1.50;;;;;;;15.11;68.66;102558.91;5063705;28;20032;-74
2022/07/10 06:45:50;;;;;;;5.07;1.60;;;;;;;15.13;68.73;102557.97;5065087;28;20017;-74
2022/07/10 06:48:16;;;;;;;5.85;1.30;;;;;;;15.17;68.00;102566.69;5066823;28;20082;-73
2022/07/10 06:50:41;;;;;;;5.03;1.40;;;;;;;15.22;67.78;102561.34;5064032;28;20052;-74
2022/07/10 06:53:07;;;;;;;3.97;1.20;;;;;;;15.30;68.09;102560.31;5068864;28;20073;-74
2022/07/10 06:55:33;;;;;;;5.88;1.20;;;;;;;15.42;67.59;102559.25;5065105;28;20464;-74
2022/07/10 06:57:59;;;;;;;6.47;1.33;;;;;;;15.54;66.30;102563.38;5059743;28;20082;-74
2022/07/10 07:00:25;;;;;;;4.43;1.20;;;;;;;15.62;67.00;102556.22;5061909;28;20057;-74
2022/07/10 07:02:51;;;;;;;4.32;1.08;;;;;;;15.72;65.80;102556.03;5060531;28;20086;-73
2022/07/10 07:05:16;;;;;;;5.25;1.20;;;;;;;15.75;65.67;102550.72;5066309;28;20719;-74
2022/07/10 07:07:41;;;;;;;3.90;1.25;;;;;;;15.81;65.98;102555.88;5064744;28;20483;-74
2022/07/10 07:10:10;;;;;;;4.00;1.00;;;;;;;15.89;64.79;102558.38;5061539;28;20036;-74
2022/07/10 07:12:35;;;;;;;5.50;1.10;;;;;;;15.91;65.22;102562.69;5062233;28;20452;-74
2022/07/10 07:15:00;;;;;;;6.13;1.50;;;;;;;15.92;64.82;102569.66;5064325;28;20480;-74
2022/07/10 07:17:33;;;;;;;5.70;1.50;;;;;;;15.96;64.78;102574.84;5063267;28;20027;-74
2022/07/10 07:25:27;;;;;;;4.63;1.30;;;;;;;15.97;65.07;102571.31;5067777;28;20035;-74
2022/07/10 07:27:53;;;;;;;5.43;1.20;;;;;;;16.06;65.91;102568.50;5064593;28;20025;-74
2022/07/10 07:30:18;;;;;;;4.13;1.40;;;;;;;16.14;65.64;102573.63;5062445;28;20020;-74
2022/07/10 07:32:45;;;;;;;6.15;1.10;;;;;;;16.18;64.41;102576.13;5062035;28;20017;-74
2022/07/10 07:35:12;;;;;;;4.82;1.00;;;;;;;16.20;65.38;102576.97;5063271;28;20157;-74
2022/07/10 07:37:41;;;;;;;3.47;1.10;;;;;;;16.22;64.08;102572.56;5065599;28;20111;-74
2022/07/10 07:40:10;;;;;;;3.83;1.00;;;;;;;16.22;64.16;102575.19;5068136;28;20053;-73
2022/07/10 07:42:36;;;;;;;5.78;1.48;;;;;;;16.19;64.53;102576.97;5060439;28;20032;-74
2022/07/10 07:45:01;;;;;;;3.60;1.20;;;;;;;16.17;63.75;102569.16;5063257;28;20052;-73
2022/07/10 07:47:27;;;;;;;3.72;1.08;;;;;;;16.19;63.59;102577.88;5061952;28;20091;-74
2022/07/10 07:49:52;;;;;;;4.88;1.40;;;;;;;16.20;64.58;102569.09;5069330;28;20510;-73
2022/07/10 07:52:17;;;;;;;4.90;1.50;;;;;;;16.24;63.98;102575.13;5063955;28;20041;-74
2022/07/10 07:54:43;;;;;;;6.70;1.40;;;;;;;16.27;64.62;102574.19;5060484;28;20029;-74
2022/07/10 07:57:08;;;;;;;5.10;1.30;;;;;;;16.29;65.02;102575.03;5071060;28;20036;-74
2022/07/10 07:59:34;;;;;;;4.63;1.30;;;;;;;16.30;64.42;102567.13;5063967;28;20475;-74
2022/07/10 08:01:59;;;;;;;4.68;1.60;;;;;;;16.28;64.21;102568.03;5061255;28;20040;-74
2022/07/10 08:04:25;;;;;;;4.80;1.60;;;;;;;16.24;64.58;102569.88;5065951;28;20016;-74
2022/07/10 08:06:52;;;;;;;6.03;1.67;;;;;;;16.19;65.84;102567.38;5061404;28;20069;-74
2022/07/10 08:09:18;;;;;;;5.63;1.52;;;;;;;16.17;65.15;102569.16;5062393;28;20200;-74
2022/07/10 08:11:43;;;;;;;6.40;2.05;;;;;;;16.16;64.93;102569.16;5063957;28;20026;-73
2022/07/10 08:14:08;;;;;;;5.40;1.70;;;;;;;16.20;65.74;102565.59;5065891;28;20047;-73
2022/07/10 08:16:34;;;;;;;5.75;1.63;;;;;;;16.20;65.24;102570.84;5069121;28;20044;-74
2022/07/10 08:18:59;;;;;;;5.05;1.75;;;;;;;16.19;65.42;102572.63;5068164;28;20020;-74
2022/07/10 08:21:24;;;;;;;4.15;1.42;;;;;;;16.18;64.99;102576.13;5067650;28;20021;-73
2022/07/10 08:23:50;;;;;;;5.30;1.40;;;;;;;16.13;65.12;102572.72;5066776;28;20024;-74
2022/07/10 08:26:15;;;;;;;6.25;1.40;;;;;;;16.12;65.50;102571.00;5065055;28;20037;-74
2022/07/10 08:28:40;;;;;;;4.43;1.55;;;;;;;16.12;65.84;102570.16;5065793;28;20116;-74
2022/07/10 08:31:05;;;;;;;5.25;1.50;;;;;;;16.13;65.77;102570.09;5045560;28;20027;-74
2022/07/10 08:33:31;;;;;;;4.53;1.70;;;;;;;16.17;65.59;102574.41;5065476;28;20460;-74
2022/07/10 08:35:59;;;;;;;5.28;1.70;;;;;;;16.20;66.35;102569.09;5065637;28;20112;-74
2022/07/10 08:38:25;;;;;;;7.03;1.63;;;;;;;16.24;65.30;102573.34;5066917;28;20097;-74
2022/07/10 08:40:56;;;;;;;5.88;2.13;;;;;;;16.22;65.00;102572.56;5066821;28;20091;-74
2022/07/10 08:43:22;;;;;;;4.35;1.70;;;;;;;16.21;65.29;102570.81;5065822;28;20037;-74
2022/07/10 08:45:50;;;;;;;4.40;1.40;;;;;;;16.24;65.48;102567.25;5065659;28;20106;-73
2022/07/10 08:48:21;;;;;;;5.55;1.75;;;;;;;16.30;65.05;102574.13;5066993;28;20032;-74
2022/07/10 08:50:47;;;;;;;5.50;1.60;;;;;;;16.41;65.23;102576.53;5067065;28;20056;-74
2022/07/10 08:53:19;;;;;;;5.10;1.38;;;;;;;16.45;64.29;102572.94;5046136;28;20021;-73
2022/07/10 08:55:44;;;;;;;5.32;1.60;;;;;;;16.49;65.36;102580.69;5057660;28;20143;-74
2022/07/10 08:58:12;;;;;;;8.20;1.80;;;;;;;16.46;63.93;102580.75;5065684;28;20025;-75
2022/07/10 09:00:38;;;;;;;5.65;1.90;;;;;;;16.43;65.06;102575.56;5066830;28;20036;-74
2022/07/10 09:03:03;;;;;;;5.18;1.70;;;;;;;16.44;65.06;102579.09;5068206;28;20033;-74
2022/07/10 09:05:28;;;;;;;5.65;1.70;;;;;;;16.41;65.22;102584.41;5063911;28;20037;-75
2022/07/10 09:07:54;;;;;;;4.75;1.90;;;;;;;16.37;65.14;102578.34;5067211;28;20029;-74
2022/07/10 09:10:21;;;;;;;5.57;1.83;;;;;;;16.36;65.73;102574.84;5059604;28;20060;-74
2022/07/10 09:12:54;;;;;;;2.92;1.40;;;;;;;16.38;64.86;102577.47;5056836;28;20079;-73
2022/07/10 09:15:22;;;;;;;5.05;1.70;;;;;;;16.36;65.20;102566.13;5060712;28;21177;-73
2022/07/10 09:17:56;;;;;;;3.50;1.77;;;;;;;16.42;65.15;102567.75;5060685;28;20537;-74
2022/07/10 09:20:34;;;;;;;7.57;1.95;;;;;;;16.46;64.91;102564.16;5059417;28;20471;-74
2022/07/10 09:23:35;;;;;;;5.05;1.67;;;;;;;16.55;64.76;102563.94;5059872;28;20078;-74
2022/07/10 09:26:04;;;;;;;5.35;1.65;;;;;;;16.62;65.36;102560.28;5058745;28;20101;-74
2022/07/10 09:28:29;;;;;;;3.92;1.58;;;;;;;16.72;65.07;102560.91;5059000;28;20028;-74
2022/07/10 09:30:56;;;;;;;4.78;1.80;;;;;;;16.83;63.76;102551.00;5060753;28;20036;-74
2022/07/10 09:33:26;;;;;;;7.43;2.10;;;;;;;16.94;64.19;102545.47;5055529;28;20036;-74
2022/07/10 09:36:06;;;;;;;3.47;1.80;;;;;;;17.07;63.53;102542.56;5053030;28;20043;-74
2022/07/10 09:38:44;;;;;;;3.08;1.70;;;;;;;17.23;63.16;102543.88;5059228;28;20032;-74
2022/07/10 09:41:17;;;;;;;3.95;2.08;;;;;;;17.29;62.47;102543.72;5052432;28;20048;-74
2022/07/10 09:43:46;;;;;;;5.10;1.80;;;;;;;17.34;62.30;102551.47;5055633;28;20038;-74
2022/07/10 09:46:12;;;;;;;6.45;1.70;;;;;;;17.32;63.65;102534.88;5052536;28;20029;-74
2022/07/10 09:48:37;;;;;;;6.65;1.90;;;;;;;17.30;62.89;102536.69;5056125;28;20033;-74
2022/07/10 09:51:06;;;;;;;5.30;1.92;;;;;;;17.30;63.38;102536.69;5057559;28;20024;-74
2022/07/10 09:53:32;;;;;;;5.72;1.85;;;;;;;17.33;62.82;102536.59;5055213;28;20410;-74
2022/07/10 09:56:00;;;;;;;3.08;1.73;;;;;;;17.39;63.62;102546.09;5055611;28;20025;-74
2022/07/10 09:58:32;;;;;;;4.22;1.67;;;;;;;17.51;64.07;102540.47;5059494;28;20130;-74
2022/07/10 10:00:58;;;;;;;5.30;1.83;;;;;;;17.60;61.57;102537.59;5060383;28;20032;-75
2022/07/10 10:03:25;;;;;;;3.20;1.40;;;;;;;17.62;61.83;102537.56;5056538;28;20035;-75
2022/07/10 10:06:02;;;;;;;4.40;1.70;;;;;;;17.61;61.39;102535.81;5057421;28;20055;-75
2022/07/10 10:08:30;;;;;;;3.63;1.45;;;;;;;17.56;62.01;102543.84;5052862;28;20686;-74
2022/07/10 10:10:57;;;;;;;4.43;1.70;;;;;;;17.52;61.73;102536.09;5055790;28;20039;-74
2022/07/10 10:13:27;;;;;;;4.32;1.75;;;;;;;17.54;63.07;102539.56;5057344;28;20506;-74
2022/07/10 10:15:53;;;;;;;3.17;1.50;;;;;;;17.63;62.25;102538.44;5059519;28;20037;-74
2022/07/10 10:18:26;;;;;;;2.38;1.50;;;;;;;17.74;62.67;102539.84;5057144;28;20491;-74
2022/07/10 10:20:55;;;;;;;4.45;1.80;;;;;;;17.90;62.39;102542.03;5056477;28;20036;-74
2022/07/10 10:23:22;;;;;;;3.15;1.83;;;;;;;18.04;62.77;102529.34;5053055;28;20020;-74
2022/07/10 10:25:49;;;;;;;3.55;1.90;;;;;;;18.19;59.87;102527.16;5052880;28;20379;-74
2022/07/10 10:28:16;;;;;;;5.63;2.30;;;;;;;18.28;59.68;102520.72;5045649;28;20048;-75
2022/07/10 10:30:45;;;;;;;7.07;2.28;;;;;;;18.32;60.01;102515.31;5053513;28;20106;-75
2022/07/10 10:33:32;;;;;;;5.10;2.42;;;;;;;18.44;61.14;102519.31;5050139;28;20036;-74
2022/07/10 10:35:58;;;;;;;3.80;2.13;;;;;;;18.52;58.72;102518.22;5051757;28;20566;-74
2022/07/10 10:38:23;;;;;;;6.20;2.20;;;;;;;18.54;59.70;102522.53;5050314;28;20059;-74
2022/07/10 10:40:49;;;;;;;4.88;1.90;;;;;;;18.58;58.99;102526.78;5055552;28;20040;-74
2022/07/10 10:43:18;;;;;;;3.45;1.80;;;;;;;18.59;59.80;102525.88;5053166;28;20365;-74
2022/07/10 10:45:44;;;;;;;4.95;2.00;;;;;;;18.69;59.45;102529.09;5047287;28;20043;-73
2022/07/10 10:48:12;;;;;;;3.80;1.70;;;;;;;18.73;58.53;102524.56;5048874;28;20391;-74
2022/07/10 10:50:48;;;;;;;6.00;2.10;;;;;;;18.78;58.74;102525.28;5051931;28;20033;-75
2022/07/10 10:53:26;;;;;;;3.15;1.50;;;;;;;18.85;59.15;102518.88;5051327;28;20036;-74
2022/07/10 10:56:14;;;;;;;2.40;1.50;;;;;;;18.97;59.78;102515.00;5047992;28;20032;-74
2022/07/10 10:58:44;;;;;;;3.42;1.58;;;;;;;19.06;58.81;102513.81;5042049;28;20048;-74
2022/07/10 11:01:25;;;;;;;2.45;1.65;;;;;;;19.20;59.00;102508.91;5053364;28;20028;-74
2022/07/10 11:04:09;;;;;;;3.40;1.30;;;;;;;19.33;58.32;102508.44;5033974;28;20392;-75
2022/07/10 11:06:50;;;;;;;3.10;1.35;;;;;;;19.33;57.26;102500.53;5049667;28;20033;-76
2022/07/10 11:09:27;;;;;;;2.95;1.30;;;;;;;19.38;57.30;102496.84;5055386;28;20028;-73
2022/07/10 11:12:12;;;;;;;1.83;1.20;;;;;;;19.45;57.42;102488.66;5055347;28;20032;-74
2022/07/10 11:14:45;;;;;;;2.47;1.30;;;;;;;19.51;57.08;102491.09;5056861;28;20554;-76
2022/07/10 11:17:10;;;;;;;5.03;1.60;;;;;;;19.54;55.94;102497.13;5053183;28;20029;-74
2022/07/10 11:19:36;;;;;;;4.07;1.27;;;;;;;19.65;57.45;102495.84;5058860;28;20093;-75
2022/07/10 11:22:29;;;;;;;3.28;1.33;;;;;;;19.66;57.05;102487.00;5060181;28;20028;-75
2022/07/10 11:25:30;;;;;;;4.15;1.30;;;;;;;19.69;57.27;102498.31;5060262;28;21144;-75
2022/07/10 11:28:09;;;;;;;2.22;1.30;;;;;;;19.68;56.48;102490.44;5061065;28;20056;-75
2022/07/10 11:30:49;;;;;;;3.35;1.38;;;;;;;19.66;56.04;102495.81;5055283;28;20028;-75